sensor_id;sensor_type;location;lat;lon;timestamp;temperature;humidity
81726;DHT22;71135;16.738;-14.648;2023-08-06T00:02:20;16.10;75.30
81726;DHT22;71135;16.738;-14.648;2023-08-06T00:04:52;16.10;75.30
81726;DHT22;71135;16.738;-14.648;2023-08-06T00:07:25;16.10;75.30
81726;DHT22;71135;16.738;-14.648;2023-08-06T00:10:00;16.10;75.30
81726;DHT22;71135;16.738;-14.648;2023-08-06T00:12:34;16.10;75.30
81726;DHT22;71135;16.738;-14.648;2023-08-06T00:15:08;16.10;75.30
81726;DHT22;71135;16.738;-14.648;2023-08-06T00:17:52;16.10;75.30
81726;DHT22;71135;16.738;-14.648;2023-08-06T00:20:28;16.10;75.30
81726;DHT22;71135;16.738;-14.648;2023-08-06T00:23:00;16.10;75.20
81726;DHT22;71135;16.738;-14.648;2023-08-06T00:25:36;16.10;75.20
81726;DHT22;71135;16.738;-14.648;2023-08-06T00:28:05;16.10;75.20
81726;DHT22;71135;16.738;-14.648;2023-08-06T00:30:35;16.10;75.20
81726;DHT22;71135;16.738;-14.648;2023-08-06T00:33:07;16.10;75.20
81726;DHT22;71135;16.738;-14.648;2023-08-06T00:35:39;16.10;75.20
81726;DHT22;71135;16.738;-14.648;2023-08-06T00:38:08;16.10;75.20
81726;DHT22;71135;16.738;-14.648;2023-08-06T00:40:50;16.10;75.30
81726;DHT22;71135;16.738;-14.648;2023-08-06T00:43:25;16.10;75.40
81726;DHT22;71135;16.738;-14.648;2023-08-06T00:46:06;16.10;75.40
81726;DHT22;71135;16.738;-14.648;2023-08-06T00:48:55;16.10;75.50
81726;DHT22;71135;16.738;-14.648;2023-08-06T00:51:28;16.10;75.50
81726;DHT22;71135;16.738;-14.648;2023-08-06T00:54:00;16.10;75.50
81726;DHT22;71135;16.738;-14.648;2023-08-06T00:56:32;16.10;75.40
81726;DHT22;71135;16.738;-14.648;2023-08-06T00:59:08;16.10;75.40
81726;DHT22;71135;16.738;-14.648;2023-08-06T01:01:39;16.10;75.40
81726;DHT22;71135;16.738;-14.648;2023-08-06T01:04:08;16.00;75.50
81726;DHT22;71135;16.738;-14.648;2023-08-06T01:06:46;16.00;75.60
81726;DHT22;71135;16.738;-14.648;2023-08-06T01:09:35;16.00;75.70
81726;DHT22;71135;16.738;-14.648;2023-08-06T01:12:17;16.00;75.70
81726;DHT22;71135;16.738;-14.648;2023-08-06T01:14:53;16.00;75.70
81726;DHT22;71135;16.738;-14.648;2023-08-06T01:17:26;16.00;75.70
81726;DHT22;71135;16.738;-14.648;2023-08-06T01:19:57;16.00;75.70
81726;DHT22;71135;16.738;-14.648;2023-08-06T01:22:28;16.00;75.80
81726;DHT22;71135;16.738;-14.648;2023-08-06T01:24:58;16.00;75.80
81726;DHT22;71135;16.738;-14.648;2023-08-06T01:27:30;16.00;75.80
81726;DHT22;71135;16.738;-14.648;2023-08-06T01:30:06;16.00;76.00
81726;DHT22;71135;16.738;-14.648;2023-08-06T01:32:40;16.00;75.90
81726;DHT22;71135;16.738;-14.648;2023-08-06T01:35:14;16.00;76.00
81726;DHT22;71135;16.738;-14.648;2023-08-06T01:37:46;16.00;76.00
81726;DHT22;71135;16.738;-14.648;2023-08-06T01:40:16;16.00;76.00
81726;DHT22;71135;16.738;-14.648;2023-08-06T01:42:45;15.90;76.10
81726;DHT22;71135;16.738;-14.648;2023-08-06T01:45:14;15.90;76.10
81726;DHT22;71135;16.738;-14.648;2023-08-06T01:47:44;15.90;76.10
81726;DHT22;71135;16.738;-14.648;2023-08-06T01:50:13;15.80;76.20
81726;DHT22;71135;16.738;-14.648;2023-08-06T01:52:42;15.80;76.30
81726;DHT22;71135;16.738;-14.648;2023-08-06T01:55:14;15.80;76.40
81726;DHT22;71135;16.738;-14.648;2023-08-06T01:57:44;15.80;76.50
81726;DHT22;71135;16.738;-14.648;2023-08-06T02:00:16;15.80;76.40
81726;DHT22;71135;16.738;-14.648;2023-08-06T02:02:47;15.80;76.40
81726;DHT22;71135;16.738;-14.648;2023-08-06T02:05:16;15.90;76.50
81726;DHT22;71135;16.738;-14.648;2023-08-06T02:07:46;15.90;76.50
81726;DHT22;71135;16.738;-14.648;2023-08-06T02:10:18;15.90;76.50
81726;DHT22;71135;16.738;-14.648;2023-08-06T02:12:47;16.00;76.50
81726;DHT22;71135;16.738;-14.648;2023-08-06T02:15:16;15.90;76.50
81726;DHT22;71135;16.738;-14.648;2023-08-06T02:17:45;15.90;76.50
81726;DHT22;71135;16.738;-14.648;2023-08-06T02:20:14;15.90;76.50
81726;DHT22;71135;16.738;-14.648;2023-08-06T02:22:44;15.90;76.50
81726;DHT22;71135;16.738;-14.648;2023-08-06T02:25:13;15.90;76.60
81726;DHT22;71135;16.738;-14.648;2023-08-06T02:27:46;16.00;76.70
81726;DHT22;71135;16.738;-14.648;2023-08-06T02:30:15;15.90;76.60
81726;DHT22;71135;16.738;-14.648;2023-08-06T02:32:44;15.90;76.60
81726;DHT22;71135;16.738;-14.648;2023-08-06T02:35:14;15.90;76.50
81726;DHT22;71135;16.738;-14.648;2023-08-06T02:37:43;15.90;76.50
81726;DHT22;71135;16.738;-14.648;2023-08-06T02:40:12;15.90;76.60
81726;DHT22;71135;16.738;-14.648;2023-08-06T02:42:41;15.90;76.60
81726;DHT22;71135;16.738;-14.648;2023-08-06T02:45:14;15.90;76.50
81726;DHT22;71135;16.738;-14.648;2023-08-06T02:47:43;15.90;76.50
81726;DHT22;71135;16.738;-14.648;2023-08-06T02:50:12;15.90;76.50
81726;DHT22;71135;16.738;-14.648;2023-08-06T02:52:41;15.90;76.60
81726;DHT22;71135;16.738;-14.648;2023-08-06T02:55:11;15.90;76.50
81726;DHT22;71135;16.738;-14.648;2023-08-06T02:57:44;15.90;76.50
81726;DHT22;71135;16.738;-14.648;2023-08-06T03:00:19;15.90;76.50
81726;DHT22;71135;16.738;-14.648;2023-08-06T03:02:52;15.90;76.50
81726;DHT22;71135;16.738;-14.648;2023-08-06T03:05:29;16.00;76.50
81726;DHT22;71135;16.738;-14.648;2023-08-06T03:08:00;16.00;76.50
81726;DHT22;71135;16.738;-14.648;2023-08-06T03:10:33;16.00;76.50
81726;DHT22;71135;16.738;-14.648;2023-08-06T03:13:11;16.00;76.50
81726;DHT22;71135;16.738;-14.648;2023-08-06T03:15:51;16.00;76.40
81726;DHT22;71135;16.738;-14.648;2023-08-06T03:18:21;16.00;76.40
81726;DHT22;71135;16.738;-14.648;2023-08-06T03:20:53;16.00;76.30
81726;DHT22;71135;16.738;-14.648;2023-08-06T03:23:29;16.00;76.30
81726;DHT22;71135;16.738;-14.648;2023-08-06T03:26:05;16.00;76.30
81726;DHT22;71135;16.738;-14.648;2023-08-06T03:28:36;16.00;76.30
81726;DHT22;71135;16.738;-14.648;2023-08-06T03:31:12;16.00;76.20
81726;DHT22;71135;16.738;-14.648;2023-08-06T03:33:54;16.00;76.20
81726;DHT22;71135;16.738;-14.648;2023-08-06T03:36:35;16.00;76.30
81726;DHT22;71135;16.738;-14.648;2023-08-06T03:39:07;16.00;76.30
81726;DHT22;71135;16.738;-14.648;2023-08-06T03:41:41;16.00;76.40
81726;DHT22;71135;16.738;-14.648;2023-08-06T03:44:25;16.00;76.30
81726;DHT22;71135;16.738;-14.648;2023-08-06T03:47:11;15.90;76.30
81726;DHT22;71135;16.738;-14.648;2023-08-06T03:49:50;15.90;76.30
81726;DHT22;71135;16.738;-14.648;2023-08-06T03:52:32;15.90;76.40
81726;DHT22;71135;16.738;-14.648;2023-08-06T03:55:18;15.80;76.20
81726;DHT22;71135;16.738;-14.648;2023-08-06T03:57:53;15.80;76.30
81726;DHT22;71135;16.738;-14.648;2023-08-06T04:01:01;15.80;76.20
81726;DHT22;71135;16.738;-14.648;2023-08-06T04:03:56;15.80;76.10
81726;DHT22;71135;16.738;-14.648;2023-08-06T04:06:39;15.80;76.20
81726;DHT22;71135;16.738;-14.648;2023-08-06T04:09:22;15.80;76.20
81726;DHT22;71135;16.738;-14.648;2023-08-06T04:11:53;15.80;76.20
81726;DHT22;71135;16.738;-14.648;2023-08-06T04:14:28;15.80;76.20
81726;DHT22;71135;16.738;-14.648;2023-08-06T04:17:14;15.90;76.20
81726;DHT22;71135;16.738;-14.648;2023-08-06T04:19:53;15.80;76.20
81726;DHT22;71135;16.738;-14.648;2023-08-06T04:22:33;15.90;76.20
81726;DHT22;71135;16.738;-14.648;2023-08-06T04:25:18;15.90;76.10
81726;DHT22;71135;16.738;-14.648;2023-08-06T04:28:02;15.80;76.10
81726;DHT22;71135;16.738;-14.648;2023-08-06T04:30:34;15.80;76.10
81726;DHT22;71135;16.738;-14.648;2023-08-06T04:33:16;15.80;76.20
81726;DHT22;71135;16.738;-14.648;2023-08-06T04:35:59;15.80;76.20
81726;DHT22;71135;16.738;-14.648;2023-08-06T04:38:47;15.80;76.20
81726;DHT22;71135;16.738;-14.648;2023-08-06T04:41:41;15.80;76.20
81726;DHT22;71135;16.738;-14.648;2023-08-06T04:44:28;15.90;76.10
81726;DHT22;71135;16.738;-14.648;2023-08-06T04:47:02;15.90;76.10
81726;DHT22;71135;16.738;-14.648;2023-08-06T04:49:42;16.00;76.20
81726;DHT22;71135;16.738;-14.648;2023-08-06T04:52:19;16.00;76.20
81726;DHT22;71135;16.738;-14.648;2023-08-06T04:55:02;16.00;76.10
81726;DHT22;71135;16.738;-14.648;2023-08-06T04:57:38;16.00;76.10
81726;DHT22;71135;16.738;-14.648;2023-08-06T05:00:15;16.00;76.10
81726;DHT22;71135;16.738;-14.648;2023-08-06T05:02:52;16.00;76.10
81726;DHT22;71135;16.738;-14.648;2023-08-06T05:05:31;16.00;76.00
81726;DHT22;71135;16.738;-14.648;2023-08-06T05:08:13;16.00;76.20
81726;DHT22;71135;16.738;-14.648;2023-08-06T05:10:51;16.00;76.20
81726;DHT22;71135;16.738;-14.648;2023-08-06T05:13:33;16.00;76.20
81726;DHT22;71135;16.738;-14.648;2023-08-06T05:16:08;16.00;76.10
81726;DHT22;71135;16.738;-14.648;2023-08-06T05:18:45;16.00;76.00
81726;DHT22;71135;16.738;-14.648;2023-08-06T05:21:14;16.00;76.00
81726;DHT22;71135;16.738;-14.648;2023-08-06T05:24:00;16.00;75.80
81726;DHT22;71135;16.738;-14.648;2023-08-06T05:26:35;16.00;75.80
81726;DHT22;71135;16.738;-14.648;2023-08-06T05:29:19;16.00;76.00
81726;DHT22;71135;16.738;-14.648;2023-08-06T05:31:52;16.10;76.00
81726;DHT22;71135;16.738;-14.648;2023-08-06T05:34:43;16.10;76.00
81726;DHT22;71135;16.738;-14.648;2023-08-06T05:37:13;16.10;76.00
81726;DHT22;71135;16.738;-14.648;2023-08-06T05:39:45;16.10;76.00
81726;DHT22;71135;16.738;-14.648;2023-08-06T05:42:14;16.20;76.00
81726;DHT22;71135;16.738;-14.648;2023-08-06T05:44:44;16.20;76.00
81726;DHT22;71135;16.738;-14.648;2023-08-06T05:47:13;16.20;76.00
81726;DHT22;71135;16.738;-14.648;2023-08-06T05:49:42;16.20;76.00
81726;DHT22;71135;16.738;-14.648;2023-08-06T05:52:11;16.20;75.90
81726;DHT22;71135;16.738;-14.648;2023-08-06T05:54:41;16.40;75.90
81726;DHT22;71135;16.738;-14.648;2023-08-06T05:57:12;16.40;76.00
81726;DHT22;71135;16.738;-14.648;2023-08-06T05:59:42;16.40;75.80
81726;DHT22;71135;16.738;-14.648;2023-08-06T06:02:11;16.50;75.80
81726;DHT22;71135;16.738;-14.648;2023-08-06T06:04:41;16.50;75.80
81726;DHT22;71135;16.738;-14.648;2023-08-06T06:07:10;16.60;75.70
81726;DHT22;71135;16.738;-14.648;2023-08-06T06:09:40;16.70;75.60
81726;DHT22;71135;16.738;-14.648;2023-08-06T06:12:13;16.70;75.50
81726;DHT22;71135;16.738;-14.648;2023-08-06T06:14:42;16.70;75.30
81726;DHT22;71135;16.738;-14.648;2023-08-06T06:17:12;16.80;75.40
81726;DHT22;71135;16.738;-14.648;2023-08-06T06:19:41;16.80;75.30
81726;DHT22;71135;16.738;-14.648;2023-08-06T06:22:11;16.80;75.30
81726;DHT22;71135;16.738;-14.648;2023-08-06T06:24:40;16.90;75.30
81726;DHT22;71135;16.738;-14.648;2023-08-06T06:27:14;16.90;75.10
81726;DHT22;71135;16.738;-14.648;2023-08-06T06:29:44;16.90;75.10
81726;DHT22;71135;16.738;-14.648;2023-08-06T06:32:13;17.00;75.00
81726;DHT22;71135;16.738;-14.648;2023-08-06T06:34:42;17.00;75.00
81726;DHT22;71135;16.738;-14.648;2023-08-06T06:37:12;17.10;74.90
81726;DHT22;71135;16.738;-14.648;2023-08-06T06:39:42;17.10;74.80
81726;DHT22;71135;16.738;-14.648;2023-08-06T06:42:13;17.20;74.70
81726;DHT22;71135;16.738;-14.648;2023-08-06T06:44:46;17.20;74.70
81726;DHT22;71135;16.738;-14.648;2023-08-06T06:47:16;17.20;74.60
81726;DHT22;71135;16.738;-14.648;2023-08-06T06:49:45;17.30;74.60
81726;DHT22;71135;16.738;-14.648;2023-08-06T06:52:14;17.40;74.50
81726;DHT22;71135;16.738;-14.648;2023-08-06T06:54:43;17.50;74.50
81726;DHT22;71135;16.738;-14.648;2023-08-06T06:57:15;17.50;74.20
81726;DHT22;71135;16.738;-14.648;2023-08-06T06:59:44;17.60;74.00
81726;DHT22;71135;16.738;-14.648;2023-08-06T07:02:13;17.70;73.70
81726;DHT22;71135;16.738;-14.648;2023-08-06T07:04:42;17.80;73.70
81726;DHT22;71135;16.738;-14.648;2023-08-06T07:07:12;17.80;73.80
81726;DHT22;71135;16.738;-14.648;2023-08-06T07:09:41;17.80;73.80
81726;DHT22;71135;16.738;-14.648;2023-08-06T07:12:10;17.80;73.90
81726;DHT22;71135;16.738;-14.648;2023-08-06T07:14:42;17.90;73.70
81726;DHT22;71135;16.738;-14.648;2023-08-06T07:17:11;17.90;73.60
81726;DHT22;71135;16.738;-14.648;2023-08-06T07:19:40;18.00;73.50
81726;DHT22;71135;16.738;-14.648;2023-08-06T07:22:09;18.00;73.50
81726;DHT22;71135;16.738;-14.648;2023-08-06T07:24:39;18.00;73.50
81726;DHT22;71135;16.738;-14.648;2023-08-06T07:27:08;18.00;73.40
81726;DHT22;71135;16.738;-14.648;2023-08-06T07:29:37;18.00;73.20
81726;DHT22;71135;16.738;-14.648;2023-08-06T07:32:09;18.00;73.20
81726;DHT22;71135;16.738;-14.648;2023-08-06T07:34:38;18.00;73.20
81726;DHT22;71135;16.738;-14.648;2023-08-06T07:37:07;18.00;73.10
81726;DHT22;71135;16.738;-14.648;2023-08-06T07:39:37;18.00;73.30
81726;DHT22;71135;16.738;-14.648;2023-08-06T07:42:08;17.90;73.40
81726;DHT22;71135;16.738;-14.648;2023-08-06T07:44:39;17.90;73.50
81726;DHT22;71135;16.738;-14.648;2023-08-06T07:47:11;17.90;73.50
81726;DHT22;71135;16.738;-14.648;2023-08-06T07:49:40;18.00;73.50
81726;DHT22;71135;16.738;-14.648;2023-08-06T07:52:09;18.00;73.30
81726;DHT22;71135;16.738;-14.648;2023-08-06T07:54:38;18.00;73.40
81726;DHT22;71135;16.738;-14.648;2023-08-06T07:57:08;18.00;73.10
81726;DHT22;71135;16.738;-14.648;2023-08-06T07:59:37;18.00;72.90
81726;DHT22;71135;16.738;-14.648;2023-08-06T08:02:06;18.00;72.90
81726;DHT22;71135;16.738;-14.648;2023-08-06T08:04:38;18.00;72.80
81726;DHT22;71135;16.738;-14.648;2023-08-06T08:07:09;18.10;72.80
81726;DHT22;71135;16.738;-14.648;2023-08-06T08:09:38;18.10;72.70
81726;DHT22;71135;16.738;-14.648;2023-08-06T08:12:07;18.10;72.80
81726;DHT22;71135;16.738;-14.648;2023-08-06T08:14:37;18.10;72.90
81726;DHT22;71135;16.738;-14.648;2023-08-06T08:17:06;18.10;72.80
81726;DHT22;71135;16.738;-14.648;2023-08-06T08:19:38;18.10;72.70
81726;DHT22;71135;16.738;-14.648;2023-08-06T08:22:07;18.10;72.60
81726;DHT22;71135;16.738;-14.648;2023-08-06T08:24:37;18.00;72.60
81726;DHT22;71135;16.738;-14.648;2023-08-06T08:27:06;18.00;72.70
81726;DHT22;71135;16.738;-14.648;2023-08-06T08:29:35;18.00;73.00
81726;DHT22;71135;16.738;-14.648;2023-08-06T08:32:04;18.00;73.00
81726;DHT22;71135;16.738;-14.648;2023-08-06T08:34:34;18.00;72.90
81726;DHT22;71135;16.738;-14.648;2023-08-06T08:37:05;18.00;72.80
81726;DHT22;71135;16.738;-14.648;2023-08-06T08:39:35;18.10;72.80
81726;DHT22;71135;16.738;-14.648;2023-08-06T08:42:04;18.20;72.60
81726;DHT22;71135;16.738;-14.648;2023-08-06T08:44:34;18.30;72.60
81726;DHT22;71135;16.738;-14.648;2023-08-06T08:47:06;18.50;72.20
81726;DHT22;71135;16.738;-14.648;2023-08-06T08:49:36;18.60;72.00
81726;DHT22;71135;16.738;-14.648;2023-08-06T08:52:09;18.60;71.80
81726;DHT22;71135;16.738;-14.648;2023-08-06T08:54:40;18.60;71.90
81726;DHT22;71135;16.738;-14.648;2023-08-06T08:57:09;18.60;71.80
81726;DHT22;71135;16.738;-14.648;2023-08-06T08:59:39;18.50;71.70
81726;DHT22;71135;16.738;-14.648;2023-08-06T09:02:10;18.40;71.90
81726;DHT22;71135;16.738;-14.648;2023-08-06T09:04:40;18.30;72.20
81726;DHT22;71135;16.738;-14.648;2023-08-06T09:07:15;18.30;72.20
81726;DHT22;71135;16.738;-14.648;2023-08-06T09:09:49;18.30;72.20
81726;DHT22;71135;16.738;-14.648;2023-08-06T09:12:18;18.30;72.10
81726;DHT22;71135;16.738;-14.648;2023-08-06T09:14:48;18.50;72.20
81726;DHT22;71135;16.738;-14.648;2023-08-06T09:17:17;18.80;71.90
81726;DHT22;71135;16.738;-14.648;2023-08-06T09:19:47;19.20;71.30
81726;DHT22;71135;16.738;-14.648;2023-08-06T09:22:19;19.50;70.70
81726;DHT22;71135;16.738;-14.648;2023-08-06T09:24:48;19.50;70.20
81726;DHT22;71135;16.738;-14.648;2023-08-06T09:27:18;19.50;70.20
81726;DHT22;71135;16.738;-14.648;2023-08-06T09:29:47;19.40;70.40
81726;DHT22;71135;16.738;-14.648;2023-08-06T09:32:16;19.40;70.40
81726;DHT22;71135;16.738;-14.648;2023-08-06T09:34:46;19.30;70.40
81726;DHT22;71135;16.738;-14.648;2023-08-06T09:37:15;19.20;70.50
81726;DHT22;71135;16.738;-14.648;2023-08-06T09:39:47;19.10;70.50
81726;DHT22;71135;16.738;-14.648;2023-08-06T09:42:17;19.00;70.60
81726;DHT22;71135;16.738;-14.648;2023-08-06T09:44:46;18.80;70.80
81726;DHT22;71135;16.738;-14.648;2023-08-06T09:47:16;18.70;70.50
81726;DHT22;71135;16.738;-14.648;2023-08-06T09:49:48;18.60;70.80
81726;DHT22;71135;16.738;-14.648;2023-08-06T09:52:19;18.50;70.90
81726;DHT22;71135;16.738;-14.648;2023-08-06T09:54:52;18.50;71.10
81726;DHT22;71135;16.738;-14.648;2023-08-06T09:57:21;18.40;71.20
81726;DHT22;71135;16.738;-14.648;2023-08-06T09:59:53;18.50;71.20
81726;DHT22;71135;16.738;-14.648;2023-08-06T10:02:25;18.70;71.40
81726;DHT22;71135;16.738;-14.648;2023-08-06T10:04:55;19.00;70.70
81726;DHT22;71135;16.738;-14.648;2023-08-06T10:07:26;19.30;70.20
81726;DHT22;71135;16.738;-14.648;2023-08-06T10:09:58;19.50;69.60
81726;DHT22;71135;16.738;-14.648;2023-08-06T10:12:29;19.50;69.20
81726;DHT22;71135;16.738;-14.648;2023-08-06T10:15:03;19.60;69.00
81726;DHT22;71135;16.738;-14.648;2023-08-06T10:17:34;19.60;69.00
81726;DHT22;71135;16.738;-14.648;2023-08-06T10:20:06;19.60;68.70
81726;DHT22;71135;16.738;-14.648;2023-08-06T10:22:36;19.50;69.00
81726;DHT22;71135;16.738;-14.648;2023-08-06T10:25:08;19.50;69.20
81726;DHT22;71135;16.738;-14.648;2023-08-06T10:27:41;19.60;69.40
81726;DHT22;71135;16.738;-14.648;2023-08-06T10:30:26;19.70;69.10
81726;DHT22;71135;16.738;-14.648;2023-08-06T10:32:57;19.80;68.70
81726;DHT22;71135;16.738;-14.648;2023-08-06T10:35:31;19.80;68.60
81726;DHT22;71135;16.738;-14.648;2023-08-06T10:38:06;19.90;68.10
81726;DHT22;71135;16.738;-14.648;2023-08-06T10:40:40;19.90;68.30
81726;DHT22;71135;16.738;-14.648;2023-08-06T10:43:25;19.70;68.10
81726;DHT22;71135;16.738;-14.648;2023-08-06T10:45:55;19.50;68.10
81726;DHT22;71135;16.738;-14.648;2023-08-06T10:48:32;19.20;68.40
81726;DHT22;71135;16.738;-14.648;2023-08-06T10:51:03;19.10;68.70
81726;DHT22;71135;16.738;-14.648;2023-08-06T10:53:32;19.00;68.70
81726;DHT22;71135;16.738;-14.648;2023-08-06T10:56:12;18.90;68.60
81726;DHT22;71135;16.738;-14.648;2023-08-06T10:58:41;18.80;68.60
81726;DHT22;71135;16.738;-14.648;2023-08-06T11:01:11;18.60;68.70
81726;DHT22;71135;16.738;-14.648;2023-08-06T11:03:41;18.50;69.10
81726;DHT22;71135;16.738;-14.648;2023-08-06T11:06:10;18.30;69.70
81726;DHT22;71135;16.738;-14.648;2023-08-06T11:08:47;18.20;70.00
81726;DHT22;71135;16.738;-14.648;2023-08-06T11:11:19;18.10;70.10
81726;DHT22;71135;16.738;-14.648;2023-08-06T11:13:50;18.00;70.60
81726;DHT22;71135;16.738;-14.648;2023-08-06T11:16:21;17.80;70.90
81726;DHT22;71135;16.738;-14.648;2023-08-06T11:18:52;17.70;71.20
81726;DHT22;71135;16.738;-14.648;2023-08-06T11:21:22;17.60;71.60
81726;DHT22;71135;16.738;-14.648;2023-08-06T11:23:52;17.50;71.70
81726;DHT22;71135;16.738;-14.648;2023-08-06T11:26:24;17.50;72.00
81726;DHT22;71135;16.738;-14.648;2023-08-06T11:28:53;17.40;72.10
81726;DHT22;71135;16.738;-14.648;2023-08-06T11:31:23;17.40;72.20
81726;DHT22;71135;16.738;-14.648;2023-08-06T11:33:53;17.40;72.10
81726;DHT22;71135;16.738;-14.648;2023-08-06T11:36:31;17.40;72.10
81726;DHT22;71135;16.738;-14.648;2023-08-06T11:39:02;17.40;72.20
81726;DHT22;71135;16.738;-14.648;2023-08-06T11:41:36;17.40;72.20
81726;DHT22;71135;16.738;-14.648;2023-08-06T11:44:06;17.40;72.40
81726;DHT22;71135;16.738;-14.648;2023-08-06T11:46:50;17.30;72.40
81726;DHT22;71135;16.738;-14.648;2023-08-06T11:49:37;17.30;72.30
81726;DHT22;71135;16.738;-14.648;2023-08-06T11:52:12;17.20;72.20
81726;DHT22;71135;16.738;-14.648;2023-08-06T11:54:42;17.20;72.20
81726;DHT22;71135;16.738;-14.648;2023-08-06T11:57:15;17.20;72.10
81726;DHT22;71135;16.738;-14.648;2023-08-06T11:59:45;17.20;72.20
81726;DHT22;71135;16.738;-14.648;2023-08-06T12:02:14;17.20;72.30
81726;DHT22;71135;16.738;-14.648;2023-08-06T12:04:59;17.20;72.20
81726;DHT22;71135;16.738;-14.648;2023-08-06T12:07:30;17.20;72.10
81726;DHT22;71135;16.738;-14.648;2023-08-06T12:10:00;17.20;72.30
81726;DHT22;71135;16.738;-14.648;2023-08-06T12:12:32;17.20;72.20
81726;DHT22;71135;16.738;-14.648;2023-08-06T12:15:01;17.10;72.20
81726;DHT22;71135;16.738;-14.648;2023-08-06T12:17:30;17.10;72.20
81726;DHT22;71135;16.738;-14.648;2023-08-06T12:19:59;17.00;72.00
81726;DHT22;71135;16.738;-14.648;2023-08-06T12:22:31;17.00;71.80
81726;DHT22;71135;16.738;-14.648;2023-08-06T12:25:02;17.00;71.90
81726;DHT22;71135;16.738;-14.648;2023-08-06T12:27:37;17.00;71.90
81726;DHT22;71135;16.738;-14.648;2023-08-06T12:30:06;17.00;71.60
81726;DHT22;71135;16.738;-14.648;2023-08-06T12:32:36;17.00;71.50
81726;DHT22;71135;16.738;-14.648;2023-08-06T12:35:07;17.00;71.60
81726;DHT22;71135;16.738;-14.648;2023-08-06T12:37:37;17.00;71.50
81726;DHT22;71135;16.738;-14.648;2023-08-06T12:40:07;17.00;71.60
81726;DHT22;71135;16.738;-14.648;2023-08-06T12:42:39;17.00;71.50
81726;DHT22;71135;16.738;-14.648;2023-08-06T12:45:09;17.00;71.60
81726;DHT22;71135;16.738;-14.648;2023-08-06T12:47:38;17.10;71.50
81726;DHT22;71135;16.738;-14.648;2023-08-06T12:50:08;17.20;71.70
81726;DHT22;71135;16.738;-14.648;2023-08-06T12:52:37;17.20;71.60
81726;DHT22;71135;16.738;-14.648;2023-08-06T12:55:07;17.40;71.50
81726;DHT22;71135;16.738;-14.648;2023-08-06T12:57:39;17.50;71.40
81726;DHT22;71135;16.738;-14.648;2023-08-06T13:00:09;17.60;71.00
81726;DHT22;71135;16.738;-14.648;2023-08-06T13:02:39;17.80;70.70
81726;DHT22;71135;16.738;-14.648;2023-08-06T13:05:08;17.90;70.60
81726;DHT22;71135;16.738;-14.648;2023-08-06T13:07:37;18.00;70.50
81726;DHT22;71135;16.738;-14.648;2023-08-06T13:10:07;18.10;70.20
81726;DHT22;71135;16.738;-14.648;2023-08-06T13:12:39;18.30;70.10
81726;DHT22;71135;16.738;-14.648;2023-08-06T13:15:09;18.50;70.10
81726;DHT22;71135;16.738;-14.648;2023-08-06T13:17:38;18.70;69.00
81726;DHT22;71135;16.738;-14.648;2023-08-06T13:20:08;18.90;68.40
81726;DHT22;71135;16.738;-14.648;2023-08-06T13:22:37;19.00;68.00
81726;DHT22;71135;16.738;-14.648;2023-08-06T13:25:07;19.10;67.80
81726;DHT22;71135;16.738;-14.648;2023-08-06T13:27:39;19.10;67.50
81726;DHT22;71135;16.738;-14.648;2023-08-06T13:30:11;19.10;67.80
81726;DHT22;71135;16.738;-14.648;2023-08-06T13:32:40;19.20;68.20
81726;DHT22;71135;16.738;-14.648;2023-08-06T13:35:14;19.30;67.30
81726;DHT22;71135;16.738;-14.648;2023-08-06T13:37:43;19.50;67.00
81726;DHT22;71135;16.738;-14.648;2023-08-06T13:40:14;19.60;66.50
81726;DHT22;71135;16.738;-14.648;2023-08-06T13:42:46;19.70;65.90
81726;DHT22;71135;16.738;-14.648;2023-08-06T13:45:15;19.90;66.20
81726;DHT22;71135;16.738;-14.648;2023-08-06T13:47:45;20.00;66.20
81726;DHT22;71135;16.738;-14.648;2023-08-06T13:50:14;20.00;65.40
81726;DHT22;71135;16.738;-14.648;2023-08-06T13:52:43;20.00;65.00
81726;DHT22;71135;16.738;-14.648;2023-08-06T13:55:13;20.00;65.20
81726;DHT22;71135;16.738;-14.648;2023-08-06T13:57:42;19.90;65.70
81726;DHT22;71135;16.738;-14.648;2023-08-06T14:00:15;19.90;65.50
81726;DHT22;71135;16.738;-14.648;2023-08-06T14:02:44;20.00;65.80
81726;DHT22;71135;16.738;-14.648;2023-08-06T14:05:13;20.00;66.20
81726;DHT22;71135;16.738;-14.648;2023-08-06T14:07:42;20.30;65.50
81726;DHT22;71135;16.738;-14.648;2023-08-06T14:10:11;20.30;65.60
81726;DHT22;71135;16.738;-14.648;2023-08-06T14:12:41;20.50;66.00
81726;DHT22;71135;16.738;-14.648;2023-08-06T14:15:13;20.60;65.00
81726;DHT22;71135;16.738;-14.648;2023-08-06T14:17:42;20.80;64.10
81726;DHT22;71135;16.738;-14.648;2023-08-06T14:20:11;20.90;64.60
81726;DHT22;71135;16.738;-14.648;2023-08-06T14:22:41;21.00;64.70
81726;DHT22;71135;16.738;-14.648;2023-08-06T14:25:10;21.10;63.80
81726;DHT22;71135;16.738;-14.648;2023-08-06T14:27:39;21.10;63.80
81726;DHT22;71135;16.738;-14.648;2023-08-06T14:30:09;21.00;63.70
81726;DHT22;71135;16.738;-14.648;2023-08-06T14:32:42;20.90;64.10
81726;DHT22;71135;16.738;-14.648;2023-08-06T14:35:11;20.70;64.30
81726;DHT22;71135;16.738;-14.648;2023-08-06T14:37:40;20.50;64.80
81726;DHT22;71135;16.738;-14.648;2023-08-06T14:40:14;20.30;65.10
81726;DHT22;71135;16.738;-14.648;2023-08-06T14:42:44;20.10;65.30
81726;DHT22;71135;16.738;-14.648;2023-08-06T14:45:14;20.00;65.50
81726;DHT22;71135;16.738;-14.648;2023-08-06T14:47:46;19.80;65.90
81726;DHT22;71135;16.738;-14.648;2023-08-06T14:50:15;19.70;66.10
81726;DHT22;71135;16.738;-14.648;2023-08-06T14:52:45;19.70;66.50
81726;DHT22;71135;16.738;-14.648;2023-08-06T14:55:22;19.70;66.40
81726;DHT22;71135;16.738;-14.648;2023-08-06T14:57:52;19.80;66.20
81726;DHT22;71135;16.738;-14.648;2023-08-06T15:00:21;19.70;66.00
81726;DHT22;71135;16.738;-14.648;2023-08-06T15:02:53;19.60;66.00
81726;DHT22;71135;16.738;-14.648;2023-08-06T15:05:22;19.40;65.70
81726;DHT22;71135;16.738;-14.648;2023-08-06T15:07:52;19.20;66.20
81726;DHT22;71135;16.738;-14.648;2023-08-06T15:10:21;19.00;66.80
81726;DHT22;71135;16.738;-14.648;2023-08-06T15:12:51;18.70;67.60
81726;DHT22;71135;16.738;-14.648;2023-08-06T15:15:20;18.50;68.20
81726;DHT22;71135;16.738;-14.648;2023-08-06T15:17:57;18.40;68.80
81726;DHT22;71135;16.738;-14.648;2023-08-06T15:20:27;18.30;69.40
81726;DHT22;71135;16.738;-14.648;2023-08-06T15:22:56;18.10;69.70
81726;DHT22;71135;16.738;-14.648;2023-08-06T15:25:26;18.00;69.90
81726;DHT22;71135;16.738;-14.648;2023-08-06T15:28:02;17.90;70.20
81726;DHT22;71135;16.738;-14.648;2023-08-06T15:30:32;17.90;70.70
81726;DHT22;71135;16.738;-14.648;2023-08-06T15:33:05;17.90;70.50
81726;DHT22;71135;16.738;-14.648;2023-08-06T15:35:34;17.80;70.40